Flight Track Log - Related Links

Times and Time Zones

All times are in EDT time to prevent confusion due to time zone crossing. See the SWA1728 flight status page for this flight to view local times or setup timezone preferences in your user account.

Time Position Orientation Groundspeed Altitude Reporting Facility
EDT Latitude Longitude Course Direction KTS MPH feet Rate Location/Type
Thu 09:23:08 AM 33.4333 -111.9833 90° East 163 188 1,900  Level Phoenix TRACON
Thu 09:23:44 AM 33.4333 -111.9500 90° East 204 235 2,600 1,612 Climbing Phoenix TRACON
Thu 09:24:15 AM 33.4361 -111.9144 85° East 211 243 3,700 2,348 Climbing Albuquerque Center
Thu 09:25:16 AM 33.3922 -111.8875 153° Southeast 215 247 6,200 2,410 Climbing Albuquerque Center
Thu 09:26:17 AM 33.3678 -111.9636 249° West 266 306 8,600 2,410 Climbing Albuquerque Center
Thu 09:27:18 AM 33.3772 -112.0592 277° West 290 334 11,100 2,852 Climbing Albuquerque Center
Thu 09:28:19 AM 33.3886 -112.1722 277° West 338 389 14,400 3,148 Climbing Albuquerque Center
Thu 09:29:20 AM 33.4003 -112.2883 277° West 349 402 17,500 2,754 Climbing Albuquerque Center
Thu 09:30:21 AM 33.4119 -112.4081 277° West 360 414 20,000 2,625 Climbing Albuquerque Center
Thu 09:32:16 AM 33.4361 -112.6431 277° West 373 429 25,200 2,455 Climbing Los Angeles Center
Thu 09:33:17 AM 33.4514 -112.7925 277° West 379 436 27,200 1,902 Climbing Los Angeles Center
Thu 09:34:19 AM 33.4883 -112.9211 289° West 414 476 29,100 2,049 Climbing Los Angeles Center
Thu 09:35:20 AM 33.5328 -113.0433 294° West 407 468 31,400 1,426 Climbing Los Angeles Center
Thu 09:36:21 AM 33.5756 -113.1658 293° West 401 461 32,000 281 Climbing Los Angeles Center
Thu 09:37:28 AM 33.6183 -113.2875 293° West 399 459 32,000  Level Albuquerque Center
Thu 09:38:29 AM 33.6667 -113.4239 293° West 395 455 32,000  Level Albuquerque Center
Thu 09:39:30 AM 33.7100 -113.5475 293° West 399 459 32,000  Level Albuquerque Center
Thu 09:40:31 AM 33.7542 -113.6728 293° West 404 465 32,000  Level Albuquerque Center
Thu 09:41:32 AM 33.7978 -113.7989 293° West 408 470 32,000  Level Albuquerque Center
Thu 09:42:33 AM 33.8417 -113.9239 293° West 408 470 32,000  Level Albuquerque Center
Thu 09:43:34 AM 33.8850 -114.0497 293° West 406 467 32,000  Level Albuquerque Center
Thu 09:44:35 AM 33.9283 -114.1758 293° West 408 470 32,000  Level Albuquerque Center
Thu 09:45:36 AM 33.9753 -114.3092 293° West 409 471 32,000  Level Albuquerque Center
Thu 09:46:35 AM 34.0219 -114.4469 292° West 409 471 32,000  Level Los Angeles Center
Thu 09:48:38 AM 34.1483 -114.6697 304° West 402 463 32,000  Level Los Angeles Center
Thu 09:49:39 AM 34.2167 -114.7739 308° West 398 458 32,000  Level Los Angeles Center
Thu 09:50:41 AM 34.2833 -114.8803 307° West 400 460 32,000  Level Los Angeles Center
Thu 09:51:55 AM 34.2975 -115.0072 278° West 388 447 32,000  Level Los Angeles Center
Thu 09:52:56 AM 34.2672 -115.1964 259° West 410 472 32,000  Level Los Angeles Center
Thu 09:53:58 AM 34.2464 -115.3322 260° West 413 475 32,000  Level Los Angeles Center
Thu 09:55:00 AM 34.2250 -115.4669 259° West 410 472 32,000  Level Los Angeles Center
Thu 09:56:01 AM 34.2042 -115.6039 260° West 414 476 32,000  Level Los Angeles Center
Thu 09:57:03 AM 34.1811 -115.7397 258° West 414 476 32,000  Level Los Angeles Center
Thu 09:58:04 AM 34.1583 -115.8797 259° West 420 483 32,000 -98 Level Los Angeles Center
Thu 09:59:06 AM 34.1353 -116.0261 259° West 431 496 31,800 -726 Descending Los Angeles Center
Thu 10:00:08 AM 34.1075 -116.1942 259° West 432 497 30,500 -1,122 Descending Los Angeles Center
Thu 10:01:09 AM 34.0844 -116.3350 259° West 430 495 29,500 -976 Descending Los Angeles Center
Thu 10:02:11 AM 34.0622 -116.4736 259° West 426 490 28,500 -1,597 Descending Los Angeles Center
Thu 10:03:13 AM 34.0397 -116.6089 259° West 420 483 26,200 -2,274 Descending Los Angeles Center
Thu 10:04:15 AM 34.0175 -116.7383 258° West 403 464 23,800 -2,293 Descending Los Angeles Center
Thu 10:05:16 AM 33.9969 -116.8622 259° West 386 444 21,500 -2,442 Descending Los Angeles Center
Thu 10:05:41 AM 33.9833 -116.9333 257° West 370 426 20,300 -2,430 Descending Southern California TRACON
Thu 10:06:35 AM 33.9667 -117.0333 259° West 373 429 18,300 -1,636 Descending Southern California TRACON
Thu 10:07:42 AM 33.9500 -117.1833 262° West 352 405 17,000 -645 Descending Southern California TRACON
Thu 10:08:36 AM 33.9333 -117.2833 259° West 357 411 17,000 -842 Level Southern California TRACON
Thu 10:09:36 AM 33.9333 -117.4000 270° West 361 415 15,400 -1,789 Descending Southern California TRACON
Thu 10:10:30 AM 33.9667 -117.5000 292° West 337 388 13,600 -1,670 Descending Southern California TRACON
Thu 10:11:31 AM 34.0167 -117.6000 301° West 334 384 12,200 -1,565 Descending Southern California TRACON
Thu 10:12:25 AM 34.0167 -117.6833 270° West 308 354 10,600 -1,526 Descending Southern California TRACON
Thu 10:13:25 AM 34.0167 -117.7833 270° West 293 337 9,300 -1,450 Descending Southern California TRACON
Thu 10:14:25 AM 34.0000 -117.8833 259° West 292 336 7,700 -1,500 Descending Southern California TRACON
Thu 10:15:13 AM 34.0000 -117.9667 270° West 286 329 6,600 -1,167 Descending Southern California TRACON
Thu 10:16:13 AM 33.9833 -118.0500 256° West 255 293 5,600 -1,000 Descending Southern California TRACON
Thu 10:17:13 AM 33.9833 -118.1167 270° West 227 261 4,600 -940 Descending Southern California TRACON
Thu 10:17:36 AM 33.9786 -118.1444 258° West 243 280 4,300 -1,059 Descending Los Angeles Center
Thu 10:18:38 AM 33.9714 -118.2186 263° West 232 267 3,100 -1,113 Descending Los Angeles Center
Thu 10:19:40 AM 33.9633 -118.2889 262° West 223 257 2,000 -1,016 Descending Los Angeles Center
Thu 10:20:42 AM 33.9578 -118.3519 264° West 180 207 1,000 -829 Descending Los Angeles Center
Thu 10:21:43 AM 33.9536 -118.3944 263° West 150 173 300 -390 Descending Los Angeles Center
Thu 10:22:45 AM 33.9497 -118.4364 264° West 146 168 200 -97 Descending Los Angeles Center
Thu 10:24:00 AM 33.9425 -118.4081 90° East  Level Estimated

Login

Don't have an account? Register now (free) for customized features, flight alerts, and more!